sensor_id;sensor_type;location;lat;lon;timestamp;P1;durP1;ratioP1;P2;durP2;ratioP2
32333;SDS011;18810;53.040;8.850;2023-12-29T00:00:07;9.30;;;2.83;;
32333;SDS011;18810;53.040;8.850;2023-12-29T00:02:34;6.00;;;2.83;;
32333;SDS011;18810;53.040;8.850;2023-12-29T00:05:00;16.45;;;3.38;;
32333;SDS011;18810;53.040;8.850;2023-12-29T00:07:25;13.05;;;3.20;;
32333;SDS011;18810;53.040;8.850;2023-12-29T00:09:51;9.63;;;3.22;;
32333;SDS011;18810;53.040;8.850;2023-12-29T00:12:17;11.05;;;3.13;;
32333;SDS011;18810;53.040;8.850;2023-12-29T00:14:42;9.13;;;2.92;;
32333;SDS011;18810;53.040;8.850;2023-12-29T00:17:08;8.15;;;3.03;;
32333;SDS011;18810;53.040;8.850;2023-12-29T00:19:34;9.07;;;3.13;;
32333;SDS011;18810;53.040;8.850;2023-12-29T00:22:00;10.77;;;2.80;;
32333;SDS011;18810;53.040;8.850;2023-12-29T00:24:28;9.60;;;3.08;;
32333;SDS011;18810;53.040;8.850;2023-12-29T00:26:56;8.55;;;3.20;;
32333;SDS011;18810;53.040;8.850;2023-12-29T00:29:23;10.75;;;3.05;;
32333;SDS011;18810;53.040;8.850;2023-12-29T00:31:49;11.60;;;3.45;;
32333;SDS011;18810;53.040;8.850;2023-12-29T00:34:14;11.07;;;3.53;;
32333;SDS011;18810;53.040;8.850;2023-12-29T00:36:40;9.18;;;2.75;;
32333;SDS011;18810;53.040;8.850;2023-12-29T00:39:06;10.13;;;3.53;;
32333;SDS011;18810;53.040;8.850;2023-12-29T00:41:31;11.98;;;3.40;;
32333;SDS011;18810;53.040;8.850;2023-12-29T00:43:57;7.70;;;3.58;;
32333;SDS011;18810;53.040;8.850;2023-12-29T00:46:23;9.18;;;2.88;;
32333;SDS011;18810;53.040;8.850;2023-12-29T00:48:48;9.40;;;2.88;;
32333;SDS011;18810;53.040;8.850;2023-12-29T00:51:14;4.97;;;2.65;;
32333;SDS011;18810;53.040;8.850;2023-12-29T00:53:40;10.45;;;3.25;;
32333;SDS011;18810;53.040;8.850;2023-12-29T00:56:12;17.40;;;3.50;;
32333;SDS011;18810;53.040;8.850;2023-12-29T00:58:38;12.40;;;3.33;;
32333;SDS011;18810;53.040;8.850;2023-12-29T01:01:04;9.63;;;2.85;;
32333;SDS011;18810;53.040;8.850;2023-12-29T01:03:33;7.78;;;2.88;;
32333;SDS011;18810;53.040;8.850;2023-12-29T01:05:58;8.55;;;3.00;;
32333;SDS011;18810;53.040;8.850;2023-12-29T01:08:24;10.43;;;3.05;;
32333;SDS011;18810;53.040;8.850;2023-12-29T01:10:50;8.68;;;2.80;;
32333;SDS011;18810;53.040;8.850;2023-12-29T01:13:16;5.68;;;2.55;;
32333;SDS011;18810;53.040;8.850;2023-12-29T01:15:41;11.98;;;3.38;;
32333;SDS011;18810;53.040;8.850;2023-12-29T01:18:10;7.93;;;2.83;;
32333;SDS011;18810;53.040;8.850;2023-12-29T01:20:37;11.20;;;2.90;;
32333;SDS011;18810;53.040;8.850;2023-12-29T01:23:04;10.45;;;3.20;;
32333;SDS011;18810;53.040;8.850;2023-12-29T01:25:30;12.20;;;2.92;;
32333;SDS011;18810;53.040;8.850;2023-12-29T01:27:56;9.02;;;3.08;;
32333;SDS011;18810;53.040;8.850;2023-12-29T01:30:22;12.98;;;3.42;;
32333;SDS011;18810;53.040;8.850;2023-12-29T01:32:48;6.90;;;2.75;;
32333;SDS011;18810;53.040;8.850;2023-12-29T01:35:14;7.70;;;2.90;;
32333;SDS011;18810;53.040;8.850;2023-12-29T01:37:39;10.95;;;3.22;;
32333;SDS011;18810;53.040;8.850;2023-12-29T01:40:05;12.45;;;3.10;;
32333;SDS011;18810;53.040;8.850;2023-12-29T01:42:31;9.48;;;2.92;;
32333;SDS011;18810;53.040;8.850;2023-12-29T01:44:57;7.40;;;2.78;;
32333;SDS011;18810;53.040;8.850;2023-12-29T01:47:23;9.93;;;3.17;;
32333;SDS011;18810;53.040;8.850;2023-12-29T01:49:49;11.38;;;2.58;;
32333;SDS011;18810;53.040;8.850;2023-12-29T01:52:15;9.43;;;2.83;;
32333;SDS011;18810;53.040;8.850;2023-12-29T01:54:42;12.68;;;3.33;;
32333;SDS011;18810;53.040;8.850;2023-12-29T01:57:09;5.40;;;2.47;;
32333;SDS011;18810;53.040;8.850;2023-12-29T01:59:35;10.38;;;3.10;;
32333;SDS011;18810;53.040;8.850;2023-12-29T02:02:03;3.92;;;2.20;;
32333;SDS011;18810;53.040;8.850;2023-12-29T02:04:29;8.25;;;3.10;;
32333;SDS011;18810;53.040;8.850;2023-12-29T02:06:56;8.15;;;2.95;;
32333;SDS011;18810;53.040;8.850;2023-12-29T02:09:22;10.43;;;3.22;;
32333;SDS011;18810;53.040;8.850;2023-12-29T02:11:48;8.25;;;3.20;;
32333;SDS011;18810;53.040;8.850;2023-12-29T02:14:14;14.30;;;3.30;;
32333;SDS011;18810;53.040;8.850;2023-12-29T02:19:38;8.32;;;3.33;;
32333;SDS011;18810;53.040;8.850;2023-12-29T02:22:10;10.82;;;3.45;;
32333;SDS011;18810;53.040;8.850;2023-12-29T02:24:36;7.07;;;3.08;;
32333;SDS011;18810;53.040;8.850;2023-12-29T02:29:32;12.25;;;3.67;;
32333;SDS011;18810;53.040;8.850;2023-12-29T02:31:59;11.07;;;3.72;;
32333;SDS011;18810;53.040;8.850;2023-12-29T02:34:25;18.20;;;3.80;;
32333;SDS011;18810;53.040;8.850;2023-12-29T02:36:55;11.80;;;4.28;;
32333;SDS011;18810;53.040;8.850;2023-12-29T02:39:22;9.85;;;3.80;;
32333;SDS011;18810;53.040;8.850;2023-12-29T02:41:48;12.02;;;4.30;;
32333;SDS011;18810;53.040;8.850;2023-12-29T02:44:14;14.65;;;3.95;;
32333;SDS011;18810;53.040;8.850;2023-12-29T02:46:39;13.32;;;4.18;;
32333;SDS011;18810;53.040;8.850;2023-12-29T02:49:05;11.02;;;4.22;;
32333;SDS011;18810;53.040;8.850;2023-12-29T02:51:36;13.45;;;3.80;;
32333;SDS011;18810;53.040;8.850;2023-12-29T02:54:02;12.38;;;4.78;;
32333;SDS011;18810;53.040;8.850;2023-12-29T02:56:27;15.00;;;4.38;;
32333;SDS011;18810;53.040;8.850;2023-12-29T02:58:53;8.85;;;3.72;;
32333;SDS011;18810;53.040;8.850;2023-12-29T03:01:19;12.70;;;4.07;;
32333;SDS011;18810;53.040;8.850;2023-12-29T03:03:44;8.15;;;4.00;;
32333;SDS011;18810;53.040;8.850;2023-12-29T03:06:10;18.70;;;4.45;;
32333;SDS011;18810;53.040;8.850;2023-12-29T03:08:36;16.58;;;4.20;;
32333;SDS011;18810;53.040;8.850;2023-12-29T03:11:01;9.45;;;3.97;;
32333;SDS011;18810;53.040;8.850;2023-12-29T03:13:27;14.20;;;4.28;;
32333;SDS011;18810;53.040;8.850;2023-12-29T03:15:53;14.68;;;4.57;;
32333;SDS011;18810;53.040;8.850;2023-12-29T03:18:19;9.95;;;3.97;;
32333;SDS011;18810;53.040;8.850;2023-12-29T03:20:44;8.75;;;3.60;;
32333;SDS011;18810;53.040;8.850;2023-12-29T03:23:10;9.70;;;3.80;;
32333;SDS011;18810;53.040;8.850;2023-12-29T03:25:35;16.77;;;4.75;;
32333;SDS011;18810;53.040;8.850;2023-12-29T03:28:01;17.33;;;4.53;;
32333;SDS011;18810;53.040;8.850;2023-12-29T03:30:27;13.20;;;4.28;;
32333;SDS011;18810;53.040;8.850;2023-12-29T03:32:52;12.48;;;4.07;;
32333;SDS011;18810;53.040;8.850;2023-12-29T03:35:18;13.95;;;4.45;;
32333;SDS011;18810;53.040;8.850;2023-12-29T03:37:44;15.07;;;4.82;;
32333;SDS011;18810;53.040;8.850;2023-12-29T03:40:10;15.38;;;4.80;;
32333;SDS011;18810;53.040;8.850;2023-12-29T03:42:35;13.40;;;3.80;;
32333;SDS011;18810;53.040;8.850;2023-12-29T03:45:01;10.57;;;4.25;;
32333;SDS011;18810;53.040;8.850;2023-12-29T03:47:27;9.13;;;4.63;;
32333;SDS011;18810;53.040;8.850;2023-12-29T03:49:55;14.93;;;4.18;;
32333;SDS011;18810;53.040;8.850;2023-12-29T03:52:20;7.05;;;3.95;;
32333;SDS011;18810;53.040;8.850;2023-12-29T03:54:47;12.65;;;4.70;;
32333;SDS011;18810;53.040;8.850;2023-12-29T03:57:12;11.80;;;3.95;;
32333;SDS011;18810;53.040;8.850;2023-12-29T03:59:38;16.00;;;4.07;;
32333;SDS011;18810;53.040;8.850;2023-12-29T04:02:03;11.95;;;3.80;;
32333;SDS011;18810;53.040;8.850;2023-12-29T04:04:29;9.82;;;3.75;;
32333;SDS011;18810;53.040;8.850;2023-12-29T04:06:55;6.32;;;3.42;;
32333;SDS011;18810;53.040;8.850;2023-12-29T04:09:21;11.10;;;3.60;;
32333;SDS011;18810;53.040;8.850;2023-12-29T04:11:47;12.80;;;3.90;;
32333;SDS011;18810;53.040;8.850;2023-12-29T04:14:12;7.88;;;2.85;;
32333;SDS011;18810;53.040;8.850;2023-12-29T04:16:38;7.45;;;3.25;;
32333;SDS011;18810;53.040;8.850;2023-12-29T04:19:04;14.73;;;4.10;;
32333;SDS011;18810;53.040;8.850;2023-12-29T04:21:30;9.48;;;3.22;;
32333;SDS011;18810;53.040;8.850;2023-12-29T04:23:56;9.90;;;3.10;;
32333;SDS011;18810;53.040;8.850;2023-12-29T04:26:21;11.18;;;3.45;;
32333;SDS011;18810;53.040;8.850;2023-12-29T04:28:47;10.40;;;3.45;;
32333;SDS011;18810;53.040;8.850;2023-12-29T04:31:13;11.30;;;2.97;;
32333;SDS011;18810;53.040;8.850;2023-12-29T04:33:39;9.40;;;3.22;;
32333;SDS011;18810;53.040;8.850;2023-12-29T04:36:04;11.00;;;3.00;;
32333;SDS011;18810;53.040;8.850;2023-12-29T04:38:30;4.10;;;2.75;;
32333;SDS011;18810;53.040;8.850;2023-12-29T04:40:56;6.90;;;2.40;;
32333;SDS011;18810;53.040;8.850;2023-12-29T04:43:22;9.02;;;3.00;;
32333;SDS011;18810;53.040;8.850;2023-12-29T04:45:47;10.85;;;3.17;;
32333;SDS011;18810;53.040;8.850;2023-12-29T04:48:13;7.10;;;2.97;;
32333;SDS011;18810;53.040;8.850;2023-12-29T04:50:39;6.50;;;2.55;;
32333;SDS011;18810;53.040;8.850;2023-12-29T04:53:04;11.18;;;2.78;;
32333;SDS011;18810;53.040;8.850;2023-12-29T04:55:30;12.65;;;3.17;;
32333;SDS011;18810;53.040;8.850;2023-12-29T04:57:56;7.55;;;2.65;;
32333;SDS011;18810;53.040;8.850;2023-12-29T05:00:21;6.65;;;2.95;;
32333;SDS011;18810;53.040;8.850;2023-12-29T05:02:47;10.70;;;2.97;;
32333;SDS011;18810;53.040;8.850;2023-12-29T05:05:13;9.15;;;3.53;;
32333;SDS011;18810;53.040;8.850;2023-12-29T05:07:38;8.10;;;3.20;;
32333;SDS011;18810;53.040;8.850;2023-12-29T05:10:04;8.35;;;3.25;;
32333;SDS011;18810;53.040;8.850;2023-12-29T05:12:30;8.05;;;3.17;;
32333;SDS011;18810;53.040;8.850;2023-12-29T05:14:56;10.50;;;3.25;;
32333;SDS011;18810;53.040;8.850;2023-12-29T05:17:22;12.77;;;3.70;;
32333;SDS011;18810;53.040;8.850;2023-12-29T05:19:47;9.85;;;3.30;;
32333;SDS011;18810;53.040;8.850;2023-12-29T05:22:13;6.30;;;3.35;;
32333;SDS011;18810;53.040;8.850;2023-12-29T05:24:42;8.35;;;3.50;;
32333;SDS011;18810;53.040;8.850;2023-12-29T05:27:08;11.85;;;3.47;;
32333;SDS011;18810;53.040;8.850;2023-12-29T05:29:34;8.93;;;3.40;;
32333;SDS011;18810;53.040;8.850;2023-12-29T05:31:59;8.45;;;3.65;;
32333;SDS011;18810;53.040;8.850;2023-12-29T05:34:27;13.40;;;3.42;;
32333;SDS011;18810;53.040;8.850;2023-12-29T05:36:53;12.50;;;3.30;;
32333;SDS011;18810;53.040;8.850;2023-12-29T05:39:19;11.95;;;3.20;;
32333;SDS011;18810;53.040;8.850;2023-12-29T05:41:44;14.38;;;3.75;;
32333;SDS011;18810;53.040;8.850;2023-12-29T05:44:10;10.95;;;3.47;;
32333;SDS011;18810;53.040;8.850;2023-12-29T05:46:36;11.93;;;4.03;;
32333;SDS011;18810;53.040;8.850;2023-12-29T05:49:02;16.48;;;3.90;;
32333;SDS011;18810;53.040;8.850;2023-12-29T05:51:27;12.45;;;4.53;;
32333;SDS011;18810;53.040;8.850;2023-12-29T05:53:53;15.05;;;3.80;;
32333;SDS011;18810;53.040;8.850;2023-12-29T05:56:19;10.88;;;3.20;;
32333;SDS011;18810;53.040;8.850;2023-12-29T05:58:45;14.07;;;3.60;;
32333;SDS011;18810;53.040;8.850;2023-12-29T06:01:11;15.35;;;3.70;;
32333;SDS011;18810;53.040;8.850;2023-12-29T06:03:37;12.65;;;4.03;;
32333;SDS011;18810;53.040;8.850;2023-12-29T06:06:03;9.95;;;3.47;;
32333;SDS011;18810;53.040;8.850;2023-12-29T06:08:29;16.65;;;3.58;;
32333;SDS011;18810;53.040;8.850;2023-12-29T06:10:55;13.02;;;3.85;;
32333;SDS011;18810;53.040;8.850;2023-12-29T06:13:20;12.38;;;3.17;;
32333;SDS011;18810;53.040;8.850;2023-12-29T06:15:46;12.65;;;4.13;;
32333;SDS011;18810;53.040;8.850;2023-12-29T06:18:12;17.33;;;4.18;;
32333;SDS011;18810;53.040;8.850;2023-12-29T06:20:38;13.70;;;4.03;;
32333;SDS011;18810;53.040;8.850;2023-12-29T06:23:03;14.98;;;4.15;;
32333;SDS011;18810;53.040;8.850;2023-12-29T06:25:29;13.85;;;4.00;;
32333;SDS011;18810;53.040;8.850;2023-12-29T06:27:55;9.57;;;3.40;;
32333;SDS011;18810;53.040;8.850;2023-12-29T06:30:20;11.07;;;3.83;;
32333;SDS011;18810;53.040;8.850;2023-12-29T06:32:46;16.48;;;4.40;;
32333;SDS011;18810;53.040;8.850;2023-12-29T06:35:12;21.63;;;3.75;;
32333;SDS011;18810;53.040;8.850;2023-12-29T06:37:38;14.80;;;3.50;;
32333;SDS011;18810;53.040;8.850;2023-12-29T06:40:08;13.30;;;4.15;;
32333;SDS011;18810;53.040;8.850;2023-12-29T06:42:34;20.42;;;3.92;;
32333;SDS011;18810;53.040;8.850;2023-12-29T06:44:59;12.60;;;3.30;;
32333;SDS011;18810;53.040;8.850;2023-12-29T06:47:26;13.52;;;3.80;;
32333;SDS011;18810;53.040;8.850;2023-12-29T06:49:52;12.88;;;3.00;;
32333;SDS011;18810;53.040;8.850;2023-12-29T06:52:19;15.57;;;3.90;;
32333;SDS011;18810;53.040;8.850;2023-12-29T06:54:45;10.30;;;2.97;;
32333;SDS011;18810;53.040;8.850;2023-12-29T06:57:11;14.23;;;3.17;;
32333;SDS011;18810;53.040;8.850;2023-12-29T06:59:39;11.05;;;3.53;;
32333;SDS011;18810;53.040;8.850;2023-12-29T07:02:05;14.32;;;3.15;;
32333;SDS011;18810;53.040;8.850;2023-12-29T07:04:31;12.18;;;3.30;;
32333;SDS011;18810;53.040;8.850;2023-12-29T07:06:56;15.02;;;3.20;;
32333;SDS011;18810;53.040;8.850;2023-12-29T07:09:24;12.23;;;3.47;;
32333;SDS011;18810;53.040;8.850;2023-12-29T07:11:50;14.73;;;4.47;;
32333;SDS011;18810;53.040;8.850;2023-12-29T07:14:16;12.95;;;3.47;;
32333;SDS011;18810;53.040;8.850;2023-12-29T07:16:42;13.60;;;3.10;;
32333;SDS011;18810;53.040;8.850;2023-12-29T07:19:08;16.48;;;3.30;;
32333;SDS011;18810;53.040;8.850;2023-12-29T07:21:34;15.55;;;4.75;;
32333;SDS011;18810;53.040;8.850;2023-12-29T07:24:00;12.23;;;3.88;;
32333;SDS011;18810;53.040;8.850;2023-12-29T07:26:25;19.08;;;3.55;;
32333;SDS011;18810;53.040;8.850;2023-12-29T07:28:52;14.65;;;4.43;;
32333;SDS011;18810;53.040;8.850;2023-12-29T07:31:19;16.02;;;4.18;;
32333;SDS011;18810;53.040;8.850;2023-12-29T07:33:46;17.65;;;4.25;;
32333;SDS011;18810;53.040;8.850;2023-12-29T07:36:12;14.57;;;4.05;;
32333;SDS011;18810;53.040;8.850;2023-12-29T07:38:38;17.58;;;3.75;;
32333;SDS011;18810;53.040;8.850;2023-12-29T07:41:03;11.77;;;3.15;;
32333;SDS011;18810;53.040;8.850;2023-12-29T07:43:30;17.35;;;3.75;;
32333;SDS011;18810;53.040;8.850;2023-12-29T07:45:56;15.77;;;4.40;;
32333;SDS011;18810;53.040;8.850;2023-12-29T07:48:22;13.25;;;4.20;;
32333;SDS011;18810;53.040;8.850;2023-12-29T07:50:48;16.77;;;3.38;;
32333;SDS011;18810;53.040;8.850;2023-12-29T07:53:14;17.38;;;3.65;;
32333;SDS011;18810;53.040;8.850;2023-12-29T07:55:39;15.43;;;3.28;;
32333;SDS011;18810;53.040;8.850;2023-12-29T07:58:05;20.08;;;5.00;;
32333;SDS011;18810;53.040;8.850;2023-12-29T08:00:31;16.45;;;3.80;;
32333;SDS011;18810;53.040;8.850;2023-12-29T08:02:58;14.98;;;3.95;;
32333;SDS011;18810;53.040;8.850;2023-12-29T08:05:24;17.90;;;3.80;;
32333;SDS011;18810;53.040;8.850;2023-12-29T08:07:50;15.60;;;4.18;;
32333;SDS011;18810;53.040;8.850;2023-12-29T08:10:16;11.05;;;3.97;;
32333;SDS011;18810;53.040;8.850;2023-12-29T08:12:42;15.45;;;4.18;;
32333;SDS011;18810;53.040;8.850;2023-12-29T08:15:07;24.23;;;6.20;;
32333;SDS011;18810;53.040;8.850;2023-12-29T08:17:33;30.52;;;11.55;;
32333;SDS011;18810;53.040;8.850;2023-12-29T08:19:59;28.02;;;11.77;;
32333;SDS011;18810;53.040;8.850;2023-12-29T08:22:27;25.25;;;8.02;;
32333;SDS011;18810;53.040;8.850;2023-12-29T08:24:55;52.25;;;21.88;;
32333;SDS011;18810;53.040;8.850;2023-12-29T08:27:24;34.10;;;14.90;;
32333;SDS011;18810;53.040;8.850;2023-12-29T08:29:53;18.52;;;7.97;;
32333;SDS011;18810;53.040;8.850;2023-12-29T08:32:19;20.15;;;6.88;;
32333;SDS011;18810;53.040;8.850;2023-12-29T08:34:44;24.10;;;5.80;;
32333;SDS011;18810;53.040;8.850;2023-12-29T08:37:10;17.17;;;4.90;;
32333;SDS011;18810;53.040;8.850;2023-12-29T08:39:36;13.90;;;4.65;;
32333;SDS011;18810;53.040;8.850;2023-12-29T08:42:02;14.85;;;4.75;;
32333;SDS011;18810;53.040;8.850;2023-12-29T08:44:27;20.23;;;4.70;;
32333;SDS011;18810;53.040;8.850;2023-12-29T08:46:53;10.85;;;3.17;;
32333;SDS011;18810;53.040;8.850;2023-12-29T08:49:19;13.10;;;3.20;;
32333;SDS011;18810;53.040;8.850;2023-12-29T08:51:45;8.52;;;2.80;;
32333;SDS011;18810;53.040;8.850;2023-12-29T08:54:11;20.27;;;3.25;;
32333;SDS011;18810;53.040;8.850;2023-12-29T08:56:38;11.13;;;3.30;;
32333;SDS011;18810;53.040;8.850;2023-12-29T08:59:03;11.90;;;2.63;;
32333;SDS011;18810;53.040;8.850;2023-12-29T09:01:29;10.85;;;2.08;;
32333;SDS011;18810;53.040;8.850;2023-12-29T09:03:55;9.98;;;2.22;;
32333;SDS011;18810;53.040;8.850;2023-12-29T09:06:21;3.38;;;1.42;;
32333;SDS011;18810;53.040;8.850;2023-12-29T09:08:47;7.43;;;1.83;;
32333;SDS011;18810;53.040;8.850;2023-12-29T09:11:13;4.43;;;1.52;;
32333;SDS011;18810;53.040;8.850;2023-12-29T09:13:38;4.72;;;1.83;;
32333;SDS011;18810;53.040;8.850;2023-12-29T09:16:04;8.93;;;2.80;;
32333;SDS011;18810;53.040;8.850;2023-12-29T09:18:31;8.35;;;2.35;;
32333;SDS011;18810;53.040;8.850;2023-12-29T09:20:57;8.52;;;2.45;;
32333;SDS011;18810;53.040;8.850;2023-12-29T09:23:23;14.43;;;3.50;;
32333;SDS011;18810;53.040;8.850;2023-12-29T09:25:49;12.38;;;4.18;;
32333;SDS011;18810;53.040;8.850;2023-12-29T09:28:14;9.90;;;3.22;;
32333;SDS011;18810;53.040;8.850;2023-12-29T09:30:40;14.55;;;4.30;;
32333;SDS011;18810;53.040;8.850;2023-12-29T09:33:06;14.88;;;3.83;;
32333;SDS011;18810;53.040;8.850;2023-12-29T09:35:31;4.93;;;2.60;;
32333;SDS011;18810;53.040;8.850;2023-12-29T09:37:57;10.35;;;2.90;;
32333;SDS011;18810;53.040;8.850;2023-12-29T09:40:24;11.30;;;3.58;;
32333;SDS011;18810;53.040;8.850;2023-12-29T09:42:51;8.18;;;2.97;;
32333;SDS011;18810;53.040;8.850;2023-12-29T09:45:17;9.80;;;3.22;;
32333;SDS011;18810;53.040;8.850;2023-12-29T09:47:50;17.70;;;4.07;;
32333;SDS011;18810;53.040;8.850;2023-12-29T09:50:17;13.98;;;4.30;;
32333;SDS011;18810;53.040;8.850;2023-12-29T09:52:44;19.63;;;5.35;;
32333;SDS011;18810;53.040;8.850;2023-12-29T09:55:15;13.65;;;5.13;;
32333;SDS011;18810;53.040;8.850;2023-12-29T09:57:40;11.38;;;3.97;;
32333;SDS011;18810;53.040;8.850;2023-12-29T10:00:09;15.82;;;4.75;;
32333;SDS011;18810;53.040;8.850;2023-12-29T10:02:36;16.02;;;4.25;;
32333;SDS011;18810;53.040;8.850;2023-12-29T10:05:03;11.10;;;4.00;;
32333;SDS011;18810;53.040;8.850;2023-12-29T10:07:31;14.85;;;4.28;;
32333;SDS011;18810;53.040;8.850;2023-12-29T10:10:01;16.45;;;3.92;;
32333;SDS011;18810;53.040;8.850;2023-12-29T10:12:29;11.50;;;4.03;;
32333;SDS011;18810;53.040;8.850;2023-12-29T10:15:06;13.13;;;3.67;;
32333;SDS011;18810;53.040;8.850;2023-12-29T10:17:51;17.23;;;3.85;;
32333;SDS011;18810;53.040;8.850;2023-12-29T10:25:24;8.60;;;2.75;;
32333;SDS011;18810;53.040;8.850;2023-12-29T10:27:50;12.02;;;3.40;;
32333;SDS011;18810;53.040;8.850;2023-12-29T10:30:16;17.08;;;2.60;;
32333;SDS011;18810;53.040;8.850;2023-12-29T10:32:43;15.70;;;3.00;;
32333;SDS011;18810;53.040;8.850;2023-12-29T10:35:14;7.43;;;1.85;;
32333;SDS011;18810;53.040;8.850;2023-12-29T10:37:39;6.32;;;2.25;;
32333;SDS011;18810;53.040;8.850;2023-12-29T10:40:05;7.95;;;2.45;;
32333;SDS011;18810;53.040;8.850;2023-12-29T10:42:33;6.15;;;1.67;;
32333;SDS011;18810;53.040;8.850;2023-12-29T10:45:08;9.05;;;2.05;;
32333;SDS011;18810;53.040;8.850;2023-12-29T10:47:37;9.25;;;2.55;;
32333;SDS011;18810;53.040;8.850;2023-12-29T10:50:09;8.00;;;2.20;;
32333;SDS011;18810;53.040;8.850;2023-12-29T10:52:35;7.65;;;2.33;;
32333;SDS011;18810;53.040;8.850;2023-12-29T10:55:08;6.93;;;2.05;;
32333;SDS011;18810;53.040;8.850;2023-12-29T10:57:36;6.72;;;2.88;;
32333;SDS011;18810;53.040;8.850;2023-12-29T11:00:02;11.88;;;3.83;;
32333;SDS011;18810;53.040;8.850;2023-12-29T11:02:29;8.68;;;2.70;;
32333;SDS011;18810;53.040;8.850;2023-12-29T11:05:04;13.27;;;4.15;;
32333;SDS011;18810;53.040;8.850;2023-12-29T11:07:35;11.45;;;5.25;;
32333;SDS011;18810;53.040;8.850;2023-12-29T11:10:08;9.20;;;4.68;;
32333;SDS011;18810;53.040;8.850;2023-12-29T11:12:37;10.10;;;4.43;;
32333;SDS011;18810;53.040;8.850;2023-12-29T11:15:05;7.82;;;4.38;;
32333;SDS011;18810;53.040;8.850;2023-12-29T11:17:33;12.05;;;4.28;;
32333;SDS011;18810;53.040;8.850;2023-12-29T11:20:02;14.07;;;4.93;;
32333;SDS011;18810;53.040;8.850;2023-12-29T11:22:30;13.30;;;4.25;;
32333;SDS011;18810;53.040;8.850;2023-12-29T11:24:59;12.02;;;4.93;;
32333;SDS011;18810;53.040;8.850;2023-12-29T11:27:26;13.95;;;5.45;;
32333;SDS011;18810;53.040;8.850;2023-12-29T11:29:55;12.98;;;4.78;;
32333;SDS011;18810;53.040;8.850;2023-12-29T11:32:25;11.30;;;4.82;;
32333;SDS011;18810;53.040;8.850;2023-12-29T11:35:05;16.80;;;5.18;;
32333;SDS011;18810;53.040;8.850;2023-12-29T11:38:29;13.40;;;4.10;;
32333;SDS011;18810;53.040;8.850;2023-12-29T11:43:58;8.20;;;3.03;;
32333;SDS011;18810;53.040;8.850;2023-12-29T11:49:03;11.68;;;3.08;;
32333;SDS011;18810;53.040;8.850;2023-12-29T11:51:30;7.95;;;2.55;;
32333;SDS011;18810;53.040;8.850;2023-12-29T11:54:00;4.47;;;2.20;;
32333;SDS011;18810;53.040;8.850;2023-12-29T11:56:33;9.30;;;2.47;;
32333;SDS011;18810;53.040;8.850;2023-12-29T11:59:13;6.32;;;2.33;;
32333;SDS011;18810;53.040;8.850;2023-12-29T12:01:39;4.57;;;1.52;;
32333;SDS011;18810;53.040;8.850;2023-12-29T12:04:33;24.23;;;5.95;;
32333;SDS011;18810;53.040;8.850;2023-12-29T12:07:07;6.53;;;1.50;;
32333;SDS011;18810;53.040;8.850;2023-12-29T12:09:33;2.95;;;1.33;;
32333;SDS011;18810;53.040;8.850;2023-12-29T12:12:03;4.03;;;1.50;;
32333;SDS011;18810;53.040;8.850;2023-12-29T12:17:28;4.80;;;1.73;;
32333;SDS011;18810;53.040;8.850;2023-12-29T12:19:57;3.13;;;1.65;;
32333;SDS011;18810;53.040;8.850;2023-12-29T12:22:24;2.83;;;1.75;;
32333;SDS011;18810;53.040;8.850;2023-12-29T12:24:55;3.67;;;1.58;;
32333;SDS011;18810;53.040;8.850;2023-12-29T12:27:22;5.88;;;2.53;;
32333;SDS011;18810;53.040;8.850;2023-12-29T12:29:54;5.20;;;2.13;;
32333;SDS011;18810;53.040;8.850;2023-12-29T12:32:27;5.45;;;1.95;;
32333;SDS011;18810;53.040;8.850;2023-12-29T12:34:54;4.47;;;1.80;;
32333;SDS011;18810;53.040;8.850;2023-12-29T12:37:27;2.53;;;1.50;;
32333;SDS011;18810;53.040;8.850;2023-12-29T12:39:54;7.70;;;2.28;;
32333;SDS011;18810;53.040;8.850;2023-12-29T12:42:20;6.57;;;1.50;;
32333;SDS011;18810;53.040;8.850;2023-12-29T12:44:48;10.10;;;2.20;;
32333;SDS011;18810;53.040;8.850;2023-12-29T12:47:24;9.20;;;1.92;;
32333;SDS011;18810;53.040;8.850;2023-12-29T12:49:54;7.03;;;1.88;;
32333;SDS011;18810;53.040;8.850;2023-12-29T12:52:20;6.40;;;2.13;;
32333;SDS011;18810;53.040;8.850;2023-12-29T12:54:46;5.55;;;2.03;;
32333;SDS011;18810;53.040;8.850;2023-12-29T12:57:17;7.45;;;1.85;;
32333;SDS011;18810;53.040;8.850;2023-12-29T12:59:44;8.00;;;2.15;;
32333;SDS011;18810;53.040;8.850;2023-12-29T13:02:10;9.13;;;2.50;;
32333;SDS011;18810;53.040;8.850;2023-12-29T13:04:38;6.82;;;2.08;;
32333;SDS011;18810;53.040;8.850;2023-12-29T13:07:05;5.97;;;2.28;;
32333;SDS011;18810;53.040;8.850;2023-12-29T13:09:31;10.25;;;2.28;;
32333;SDS011;18810;53.040;8.850;2023-12-29T13:12:12;7.05;;;2.63;;
32333;SDS011;18810;53.040;8.850;2023-12-29T13:14:39;12.15;;;2.63;;
32333;SDS011;18810;53.040;8.850;2023-12-29T13:17:05;9.55;;;2.45;;
32333;SDS011;18810;53.040;8.850;2023-12-29T13:19:32;10.13;;;2.80;;
32333;SDS011;18810;53.040;8.850;2023-12-29T13:21:59;11.07;;;2.83;;
32333;SDS011;18810;53.040;8.850;2023-12-29T13:24:25;9.00;;;2.75;;
32333;SDS011;18810;53.040;8.850;2023-12-29T13:26:51;8.45;;;3.13;;
32333;SDS011;18810;53.040;8.850;2023-12-29T13:29:24;7.32;;;2.85;;
32333;SDS011;18810;53.040;8.850;2023-12-29T13:31:55;6.70;;;2.75;;
32333;SDS011;18810;53.040;8.850;2023-12-29T13:40:26;9.95;;;3.13;;
32333;SDS011;18810;53.040;8.850;2023-12-29T13:42:59;8.20;;;2.78;;
32333;SDS011;18810;53.040;8.850;2023-12-29T13:45:28;8.13;;;2.93;;
32333;SDS011;18810;53.040;8.850;2023-12-29T13:47:55;8.23;;;3.35;;
32333;SDS011;18810;53.040;8.850;2023-12-29T13:50:23;7.18;;;3.10;;
32333;SDS011;18810;53.040;8.850;2023-12-29T13:52:49;8.27;;;3.55;;
32333;SDS011;18810;53.040;8.850;2023-12-29T13:55:21;8.88;;;3.90;;
32333;SDS011;18810;53.040;8.850;2023-12-29T13:57:50;8.57;;;3.75;;
32333;SDS011;18810;53.040;8.850;2023-12-29T14:00:23;7.40;;;3.92;;
32333;SDS011;18810;53.040;8.850;2023-12-29T14:08:33;9.90;;;4.10;;
32333;SDS011;18810;53.040;8.850;2023-12-29T14:10:59;9.98;;;4.18;;
32333;SDS011;18810;53.040;8.850;2023-12-29T14:13:25;7.57;;;4.05;;
32333;SDS011;18810;53.040;8.850;2023-12-29T14:15:52;10.48;;;5.47;;
32333;SDS011;18810;53.040;8.850;2023-12-29T14:20:46;10.35;;;5.20;;
32333;SDS011;18810;53.040;8.850;2023-12-29T14:23:11;12.15;;;4.78;;
32333;SDS011;18810;53.040;8.850;2023-12-29T14:25:38;7.63;;;4.78;;
32333;SDS011;18810;53.040;8.850;2023-12-29T14:28:13;8.55;;;3.97;;
32333;SDS011;18810;53.040;8.850;2023-12-29T14:30:43;10.88;;;4.78;;
32333;SDS011;18810;53.040;8.850;2023-12-29T14:33:10;8.55;;;4.25;;
32333;SDS011;18810;53.040;8.850;2023-12-29T14:35:36;15.48;;;4.53;;
32333;SDS011;18810;53.040;8.850;2023-12-29T14:38:02;9.00;;;3.97;;
32333;SDS011;18810;53.040;8.850;2023-12-29T14:40:28;10.35;;;4.72;;
32333;SDS011;18810;53.040;8.850;2023-12-29T14:42:54;10.02;;;4.13;;
32333;SDS011;18810;53.040;8.850;2023-12-29T14:45:20;15.48;;;4.50;;
32333;SDS011;18810;53.040;8.850;2023-12-29T14:47:46;15.63;;;4.22;;
32333;SDS011;18810;53.040;8.850;2023-12-29T14:50:14;10.70;;;3.70;;
32333;SDS011;18810;53.040;8.850;2023-12-29T14:52:40;10.13;;;4.85;;
32333;SDS011;18810;53.040;8.850;2023-12-29T14:55:05;13.93;;;4.28;;
32333;SDS011;18810;53.040;8.850;2023-12-29T14:57:31;16.80;;;3.10;;
32333;SDS011;18810;53.040;8.850;2023-12-29T14:59:57;12.00;;;3.65;;
32333;SDS011;18810;53.040;8.850;2023-12-29T15:02:23;9.45;;;3.20;;
32333;SDS011;18810;53.040;8.850;2023-12-29T15:04:48;13.23;;;3.55;;
32333;SDS011;18810;53.040;8.850;2023-12-29T15:07:15;13.75;;;3.42;;
32333;SDS011;18810;53.040;8.850;2023-12-29T15:09:42;9.55;;;2.95;;
32333;SDS011;18810;53.040;8.850;2023-12-29T15:12:08;11.48;;;3.47;;